createdAt,value
2023-05-23T00:01:22.729Z,97376.38
2023-05-23T00:03:24.237Z,97373.84
2023-05-23T00:05:26.744Z,97366.22
2023-05-23T00:07:28.171Z,97365.38
2023-05-23T00:09:29.541Z,97366.31
2023-05-23T00:11:31.194Z,97370.63
2023-05-23T00:13:34.876Z,97364.75
2023-05-23T00:15:39.319Z,97369.84
2023-05-23T00:17:40.860Z,97366.53
2023-05-23T00:19:45.575Z,97364.84
2023-05-23T00:21:49.930Z,97373.34
2023-05-23T00:23:51.360Z,97375.09
2023-05-23T00:25:53.786Z,97370.00
2023-05-23T00:27:55.152Z,97367.44
2023-05-23T00:29:56.759Z,97364.84
2023-05-23T00:31:58.091Z,97362.13
2023-05-23T00:33:59.476Z,97366.38
2023-05-23T00:36:00.890Z,97361.19
2023-05-23T00:38:02.362Z,97363.72
2023-05-23T00:40:03.779Z,97364.59
2023-05-23T00:42:05.514Z,97362.03
2023-05-23T00:44:06.921Z,97358.59
2023-05-23T00:46:08.283Z,97362.09
2023-05-23T00:48:12.433Z,97352.69
2023-05-23T00:50:14.843Z,97359.53
2023-05-23T00:52:16.261Z,97365.47
2023-05-23T00:54:17.691Z,97359.53
2023-05-23T00:56:19.020Z,97355.25
2023-05-23T00:58:20.369Z,97357.81
2023-05-23T01:00:21.705Z,97354.44
2023-05-23T01:02:23.216Z,97351.88
2023-05-23T01:04:26.673Z,97351.03
2023-05-23T01:06:30.623Z,97359.38
2023-05-23T01:08:31.967Z,97365.16
2023-05-23T01:10:33.371Z,97371.16
2023-05-23T01:12:34.687Z,97363.34
2023-05-23T01:14:36.138Z,97365.00
2023-05-23T01:16:37.572Z,97366.63
2023-05-23T01:18:41.455Z,97378.53
2023-05-23T01:20:45.147Z,97384.50
2023-05-23T01:22:46.495Z,97377.69
2023-05-23T01:24:47.903Z,97382.00
2023-05-23T01:26:49.370Z,97385.44
2023-05-23T01:28:50.891Z,97386.38
2023-05-23T01:30:52.261Z,97386.34
2023-05-23T01:32:53.663Z,97388.06
2023-05-23T01:34:55.063Z,97382.88
2023-05-23T01:36:56.579Z,97388.06
2023-05-23T01:38:58.040Z,97383.81
2023-05-23T01:40:59.370Z,97390.50
2023-05-23T01:43:01.075Z,97385.34
2023-05-23T01:45:02.406Z,97391.28
2023-05-23T01:47:03.883Z,97384.50
2023-05-23T01:49:05.233Z,97376.06
2023-05-23T01:51:07.047Z,97359.53
2023-05-23T01:53:08.474Z,97382.78
2023-05-23T01:55:09.960Z,97381.94
2023-05-23T01:57:12.046Z,97371.69
2023-05-23T01:59:13.453Z,97373.41
2023-05-23T02:01:14.838Z,97370.91
2023-05-23T02:03:16.401Z,97375.19
2023-05-23T02:05:17.921Z,97377.78
2023-05-23T02:07:23.132Z,97382.84
2023-05-23T02:09:24.463Z,97385.41
2023-05-23T02:11:26.911Z,97375.19
2023-05-23T02:13:28.241Z,97370.94
2023-05-23T02:15:29.575Z,97380.34
2023-05-23T02:17:31.072Z,97374.41
2023-05-23T02:19:32.484Z,97382.78
2023-05-23T02:21:35.468Z,97377.75
2023-05-23T02:23:36.958Z,97374.25
2023-05-23T02:25:38.423Z,97382.84
2023-05-23T02:27:39.820Z,97388.84
2023-05-23T02:29:41.226Z,97387.19
2023-05-23T02:31:42.751Z,97391.47
2023-05-23T02:33:44.226Z,97390.50
2023-05-23T02:35:45.643Z,97396.66
2023-05-23T02:37:46.973Z,97383.22
2023-05-23T02:39:48.295Z,97390.13
2023-05-23T02:41:49.614Z,97384.25
2023-05-23T02:43:50.966Z,97384.34
2023-05-23T02:45:52.299Z,97383.56
2023-05-23T02:47:53.684Z,97381.84
2023-05-23T02:49:55.131Z,97382.75
2023-05-23T02:51:56.488Z,97381.09
2023-05-23T02:53:57.828Z,97386.22
2023-05-23T02:55:59.226Z,97387.06
2023-05-23T02:58:00.568Z,97381.09
2023-05-23T03:00:01.901Z,97378.56
2023-05-23T03:02:03.316Z,97371.81
2023-05-23T03:04:04.732Z,97373.53
2023-05-23T03:06:06.418Z,97365.91
2023-05-23T03:08:08.806Z,97351.47
2023-05-23T03:10:10.183Z,97358.16
2023-05-23T03:12:11.518Z,97350.31
2023-05-23T03:14:12.860Z,97341.03
2023-05-23T03:16:14.304Z,97339.41
2023-05-23T03:18:16.322Z,97337.78
2023-05-23T03:20:17.668Z,97181.38
2023-05-23T03:22:19.013Z,97344.69
2023-05-23T03:24:20.362Z,97353.25
2023-05-23T03:26:22.079Z,97356.59
2023-05-23T03:28:23.444Z,97355.81
2023-05-23T03:30:24.775Z,97354.19
2023-05-23T03:32:26.156Z,97355.06
2023-05-23T03:34:27.607Z,97347.44
2023-05-23T03:36:28.961Z,97348.25
2023-05-23T03:38:30.386Z,97349.78
2023-05-23T03:40:31.729Z,97357.34
2023-05-23T03:42:33.059Z,97350.47
2023-05-23T03:44:34.568Z,97352.94
2023-05-23T03:46:36.000Z,97352.06
2023-05-23T03:48:37.487Z,97342.72
2023-05-23T03:50:38.808Z,97338.31
2023-05-23T03:52:40.141Z,97339.22
2023-05-23T03:54:41.651Z,97334.09
2023-05-23T03:56:42.979Z,97341.78
2023-05-23T03:58:44.340Z,97327.38
2023-05-23T04:00:46.554Z,97333.31
2023-05-23T04:02:48.349Z,97316.34
2023-05-23T04:04:49.720Z,97305.28
2023-05-23T04:06:51.101Z,97290.78
2023-05-23T04:08:52.427Z,97281.25
2023-05-23T04:10:53.764Z,97273.66
2023-05-23T04:12:55.106Z,97266.13
2023-05-23T04:14:56.549Z,97260.25
2023-05-23T04:16:57.888Z,97267.97
2023-05-23T04:18:59.695Z,97274.78
2023-05-23T04:21:01.075Z,97277.41
2023-05-23T04:23:02.455Z,97280.84
2023-05-23T04:25:04.023Z,97281.75
2023-05-23T04:27:05.872Z,97283.47
2023-05-23T04:29:07.395Z,97280.75
2023-05-23T04:31:08.746Z,97282.28
2023-05-23T04:33:10.313Z,97274.63
2023-05-23T04:35:14.302Z,97272.94
2023-05-23T04:37:17.383Z,97282.38
2023-05-23T04:39:18.716Z,97277.34
2023-05-23T04:41:23.625Z,97279.06
2023-05-23T04:43:26.695Z,97281.63
2023-05-23T04:45:28.580Z,97279.00
2023-05-23T04:47:30.018Z,97273.09
2023-05-23T04:49:34.246Z,97276.50
2023-05-23T04:51:35.605Z,97272.34
2023-05-23T04:53:37.142Z,97274.97
2023-05-23T04:55:38.873Z,97275.84
2023-05-23T04:57:40.546Z,97281.00
2023-05-23T04:59:42.685Z,97277.63
2023-05-23T05:01:44.054Z,97278.50
2023-05-23T05:03:45.484Z,97283.63
2023-05-23T05:05:46.857Z,97283.41
2023-05-23T05:07:48.223Z,97281.53
2023-05-23T05:09:49.550Z,97285.78
2023-05-23T05:11:51.084Z,97294.28
2023-05-23T05:13:52.456Z,97292.59
2023-05-23T05:15:53.869Z,97288.13
2023-05-23T05:17:55.217Z,97281.31
2023-05-23T05:19:56.973Z,97283.03
2023-05-23T05:22:00.206Z,97288.91
2023-05-23T05:24:02.259Z,97109.63
2023-05-23T05:26:05.272Z,97287.09
2023-05-23T05:28:06.749Z,97288.72
2023-05-23T05:30:08.100Z,97288.69
2023-05-23T05:32:10.004Z,97293.81
2023-05-23T05:34:11.385Z,97304.88
2023-05-23T05:36:12.777Z,97307.53
2023-05-23T05:38:14.159Z,97303.28
2023-05-23T05:40:15.503Z,97308.34
2023-05-23T05:42:16.933Z,97307.53
2023-05-23T05:44:18.280Z,97312.47
2023-05-23T05:46:19.770Z,97311.59
2023-05-23T05:48:21.122Z,97311.59
2023-05-23T05:50:22.548Z,97315.09
2023-05-23T05:52:23.868Z,97324.47
2023-05-23T05:54:25.384Z,97323.69
2023-05-23T05:56:28.092Z,97324.59
2023-05-23T05:58:29.522Z,97328.91
2023-05-23T06:00:31.010Z,97338.28
2023-05-23T06:02:33.091Z,97335.81
2023-05-23T06:04:34.523Z,97333.94
2023-05-23T06:06:35.853Z,97332.69
2023-05-23T06:08:37.201Z,97343.28
2023-05-23T06:10:39.941Z,97336.56
2023-05-23T06:12:41.533Z,97342.53
2023-05-23T06:14:42.856Z,97339.13
2023-05-23T06:16:44.497Z,97336.50
2023-05-23T06:18:45.949Z,97339.72
2023-05-23T06:20:47.343Z,97339.72
2023-05-23T06:22:51.670Z,97342.06
2023-05-23T06:24:53.069Z,97340.28
2023-05-23T06:26:54.413Z,97334.47
2023-05-23T06:28:55.879Z,97331.94
2023-05-23T06:30:57.205Z,97336.91
2023-05-23T06:32:58.627Z,97343.78
2023-05-23T06:35:00.062Z,97339.59
2023-05-23T06:37:01.441Z,97344.72
2023-05-23T06:39:02.828Z,97341.41
2023-05-23T06:41:07.079Z,97339.72
2023-05-23T06:43:08.604Z,97341.50
2023-05-23T06:45:09.990Z,97354.22
2023-05-23T06:47:11.329Z,97343.28
2023-05-23T06:49:15.103Z,97347.47
2023-05-23T06:51:16.868Z,97346.72
2023-05-23T06:53:19.347Z,97350.13
2023-05-23T06:55:20.943Z,97349.09
2023-05-23T06:57:22.414Z,97344.94
2023-05-23T06:59:23.743Z,97350.38
2023-05-23T07:01:25.137Z,97350.50
2023-05-23T07:03:26.508Z,97356.94
2023-05-23T07:05:28.293Z,97348.75
2023-05-23T07:07:29.786Z,97358.25
2023-05-23T07:09:31.155Z,97360.94
2023-05-23T07:11:32.557Z,97358.47
2023-05-23T07:13:33.896Z,97361.13
2023-05-23T07:15:35.226Z,97362.91
2023-05-23T07:17:36.651Z,97363.84
2023-05-23T07:19:38.039Z,97364.75
2023-05-23T07:21:39.408Z,97363.06
2023-05-23T07:23:40.734Z,97363.94
2023-05-23T07:25:53.748Z,97366.47
2023-05-23T07:28:02.253Z,97361.44
2023-05-23T07:30:04.437Z,97350.44
2023-05-23T07:32:05.820Z,97360.66
2023-05-23T07:34:07.189Z,97180.50
2023-05-23T07:36:08.569Z,97369.25
2023-05-23T07:38:09.936Z,97359.06
2023-05-23T07:40:11.565Z,97354.84
2023-05-23T07:42:12.945Z,97366.81
2023-05-23T07:44:14.517Z,97365.63
2023-05-23T07:46:16.666Z,97357.94
2023-05-23T07:48:18.018Z,97357.97
2023-05-23T07:50:19.369Z,97358.69
2023-05-23T07:52:21.248Z,97365.19
2023-05-23T07:54:22.690Z,97384.25
2023-05-23T07:56:24.024Z,97364.88
2023-05-23T07:58:25.359Z,97364.25
2023-05-23T08:00:26.887Z,97360.94
2023-05-23T08:02:28.355Z,97369.53
2023-05-23T08:04:29.869Z,97371.31
2023-05-23T08:06:32.033Z,97384.09
2023-05-23T08:08:33.408Z,97384.19
2023-05-23T08:10:34.765Z,97389.38
2023-05-23T08:12:36.100Z,97388.56
2023-05-23T08:14:49.921Z,97390.31
2023-05-23T08:16:53.511Z,97388.66
2023-05-23T08:18:55.004Z,97381.03
2023-05-23T08:20:56.517Z,97382.78
2023-05-23T08:22:58.274Z,97374.28
2023-05-23T08:24:59.638Z,97379.38
2023-05-23T08:27:01.065Z,97384.44
2023-05-23T08:29:02.568Z,97383.50
2023-05-23T08:31:03.950Z,97380.94
2023-05-23T08:33:05.418Z,97386.88
2023-05-23T08:35:06.859Z,97382.63
2023-05-23T08:37:08.305Z,97373.25
2023-05-23T08:39:11.266Z,97380.84
2023-05-23T08:41:13.951Z,97387.66
2023-05-23T08:43:15.345Z,97384.28
2023-05-23T08:45:16.682Z,97392.88
2023-05-23T08:47:18.692Z,97386.97
2023-05-23T08:49:20.059Z,97394.69
2023-05-23T08:51:21.392Z,97392.16
2023-05-23T08:53:22.760Z,97388.00
2023-05-23T08:55:24.639Z,97395.63
2023-05-23T08:57:25.989Z,97396.44
2023-05-23T08:59:27.377Z,97393.88
2023-05-23T09:01:28.825Z,97401.50
2023-05-23T09:03:30.245Z,97399.78
2023-05-23T09:05:31.602Z,97393.78
2023-05-23T09:07:32.979Z,97400.44
2023-05-23T09:09:34.410Z,97393.69
2023-05-23T09:11:36.464Z,97399.72
2023-05-23T09:13:37.965Z,97395.53
2023-05-23T09:15:39.321Z,97406.63
2023-05-23T09:17:40.692Z,97402.38
2023-05-23T09:19:43.239Z,97408.09
2023-05-23T09:21:44.921Z,97406.19
2023-05-23T09:23:46.262Z,97401.84
2023-05-23T09:25:47.590Z,97405.34
2023-05-23T09:27:49.019Z,97400.41
2023-05-23T09:29:50.680Z,97408.16
2023-05-23T09:31:52.089Z,97404.91
2023-05-23T09:33:53.456Z,97415.97
2023-05-23T09:35:54.779Z,97407.47
2023-05-23T09:37:59.030Z,97410.84
2023-05-23T09:40:00.726Z,97408.38
2023-05-23T09:42:02.091Z,97409.19
2023-05-23T09:44:03.413Z,97412.59
2023-05-23T09:46:04.749Z,97406.47
2023-05-23T09:48:06.149Z,97404.59
2023-05-23T09:50:08.817Z,97401.19
2023-05-23T09:52:10.459Z,97404.50
2023-05-23T09:54:11.834Z,97407.03
2023-05-23T09:56:13.168Z,97402.81
2023-05-23T09:58:14.487Z,97399.41
2023-05-23T10:00:15.815Z,97400.09
2023-05-23T10:02:17.164Z,97388.09
2023-05-23T10:04:18.556Z,97405.03
2023-05-23T10:06:19.989Z,97388.44
2023-05-23T10:08:22.086Z,97391.31
2023-05-23T10:10:24.608Z,97402.56
2023-05-23T10:12:25.980Z,97404.47
2023-05-23T10:14:27.334Z,97404.56
2023-05-23T10:16:28.745Z,97399.56
2023-05-23T10:18:30.209Z,97408.16
2023-05-23T10:20:35.097Z,97408.16
2023-05-23T10:22:36.459Z,97409.00
2023-05-23T10:24:37.847Z,97407.31
2023-05-23T10:26:39.206Z,97411.53
2023-05-23T10:28:40.571Z,97402.13
2023-05-23T10:30:42.413Z,97402.19
2023-05-23T10:32:44.027Z,97404.81
2023-05-23T10:34:45.588Z,97396.06
2023-05-23T10:36:47.167Z,97397.75
2023-05-23T10:38:50.692Z,97403.78
2023-05-23T10:40:52.818Z,97401.09
2023-05-23T10:42:54.198Z,97403.59
2023-05-23T10:44:55.557Z,97406.09
2023-05-23T10:46:58.941Z,97405.03
2023-05-23T10:49:01.474Z,97410.84
2023-05-23T10:51:03.912Z,97415.09
2023-05-23T10:53:05.298Z,97411.28
2023-05-23T10:55:06.632Z,97414.81
2023-05-23T10:57:08.173Z,97425.69
2023-05-23T10:59:10.732Z,97424.31
2023-05-23T11:01:12.057Z,97417.97
2023-05-23T11:03:14.034Z,97420.84
2023-05-23T11:05:15.512Z,97426.44
2023-05-23T11:07:16.849Z,97428.75
2023-05-23T11:09:19.442Z,97419.88
2023-05-23T11:11:21.979Z,97426.84
2023-05-23T11:13:23.335Z,97427.91
2023-05-23T11:15:24.947Z,97425.38
2023-05-23T11:17:26.282Z,97419.88
2023-05-23T11:19:30.783Z,97419.34
2023-05-23T11:21:32.197Z,97420.72
2023-05-23T11:23:33.548Z,97235.91
2023-05-23T11:25:34.894Z,97418.66
2023-05-23T11:27:36.318Z,97426.13
2023-05-23T11:29:37.689Z,97413.66
2023-05-23T11:31:40.491Z,97415.47
2023-05-23T11:33:42.033Z,97409.06
2023-05-23T11:35:43.477Z,97231.66
2023-05-23T11:37:44.826Z,97418.88
2023-05-23T11:39:46.411Z,97430.50
2023-05-23T11:41:47.751Z,97412.94
2023-05-23T11:43:49.071Z,97412.22
2023-05-23T11:45:50.645Z,97416.53
2023-05-23T11:47:54.939Z,97414.03
2023-05-23T11:49:56.423Z,97407.31
2023-05-23T11:51:57.836Z,97410.75
2023-05-23T11:53:59.180Z,97416.75
2023-05-23T11:56:00.929Z,97417.63
2023-05-23T11:58:02.287Z,97412.50
2023-05-23T12:00:05.602Z,97410.00
2023-05-23T12:02:07.968Z,97416.84
2023-05-23T12:04:09.433Z,97422.81
2023-05-23T12:06:12.165Z,97421.13
2023-05-23T12:08:15.504Z,97415.97
2023-05-23T12:10:16.856Z,97421.94
2023-05-23T12:12:18.258Z,97430.50
2023-05-23T12:14:19.673Z,97424.47
2023-05-23T12:16:21.239Z,97422.81
2023-05-23T12:18:22.767Z,97413.31
2023-05-23T12:20:24.157Z,97416.53
2023-05-23T12:22:25.676Z,97428.31
2023-05-23T12:24:27.295Z,97430.69
2023-05-23T12:26:28.617Z,97422.84
2023-05-23T12:28:29.940Z,97415.91
2023-05-23T12:30:31.273Z,97430.38
2023-05-23T12:32:32.676Z,97425.31
2023-05-23T12:34:34.080Z,97265.28
2023-05-23T12:36:47.942Z,97424.78
2023-05-23T12:38:50.587Z,97420.34
2023-05-23T12:40:51.965Z,97434.47
2023-05-23T12:42:53.355Z,97428.47
2023-05-23T12:44:54.789Z,97428.28
2023-05-23T12:46:56.169Z,97429.09
2023-05-23T12:48:57.559Z,97430.84
2023-05-23T12:50:58.936Z,97429.09
2023-05-23T12:53:00.273Z,97432.84
2023-05-23T12:55:01.642Z,97425.28
2023-05-23T12:57:02.990Z,97432.94
2023-05-23T12:59:04.455Z,97431.56
2023-05-23T13:01:06.067Z,97427.28
2023-05-23T13:03:07.659Z,97428.13
2023-05-23T13:05:09.402Z,97428.22
2023-05-23T13:07:10.878Z,97435.38
2023-05-23T13:09:12.210Z,97432.81
2023-05-23T13:11:15.187Z,97437.75
2023-05-23T13:13:17.151Z,97430.03
2023-05-23T13:15:18.498Z,97444.91
2023-05-23T13:17:19.935Z,97440.25
2023-05-23T13:19:21.416Z,97437.78
2023-05-23T13:21:22.768Z,97430.13
2023-05-23T13:23:25.832Z,97449.19
2023-05-23T13:25:27.180Z,97447.56
2023-05-23T13:27:28.556Z,97447.41
2023-05-23T13:29:29.895Z,97456.94
2023-05-23T13:31:31.219Z,97449.72
2023-05-23T13:33:32.620Z,97456.09
2023-05-23T13:35:33.984Z,97457.13
2023-05-23T13:37:35.315Z,97460.66
2023-05-23T13:39:36.669Z,97462.38
2023-05-23T13:41:38.014Z,97464.16
2023-05-23T13:43:39.670Z,97462.22
2023-05-23T13:45:41.195Z,97455.47
2023-05-23T13:47:42.750Z,97470.66
2023-05-23T13:49:44.282Z,97462.13
2023-05-23T13:51:45.649Z,97461.03
2023-05-23T13:53:49.705Z,97454.00
2023-05-23T13:55:51.124Z,97458.84
2023-05-23T13:57:52.450Z,97450.25
2023-05-23T13:59:53.811Z,97452.03
2023-05-23T14:01:55.294Z,97447.09
2023-05-23T14:03:56.725Z,97446.16
2023-05-23T14:05:58.098Z,97456.50
2023-05-23T14:07:59.475Z,97446.38
2023-05-23T14:10:00.898Z,97449.03
2023-05-23T14:12:02.228Z,97448.97
2023-05-23T14:14:03.664Z,97446.38
2023-05-23T14:16:08.168Z,97458.31
2023-05-23T14:18:09.742Z,97455.22
2023-05-23T14:20:11.153Z,97459.00
2023-05-23T14:22:12.501Z,97464.34
2023-05-23T14:24:13.945Z,97464.06
2023-05-23T14:26:15.293Z,97456.97
2023-05-23T14:28:19.580Z,97459.75
2023-05-23T14:30:21.133Z,97460.91
2023-05-23T14:32:22.460Z,97465.28
2023-05-23T14:34:23.834Z,97463.44
2023-05-23T14:36:25.211Z,97469.66
2023-05-23T14:38:27.212Z,97472.44
2023-05-23T14:40:28.622Z,97471.44
2023-05-23T14:42:29.968Z,97478.31
2023-05-23T14:44:31.294Z,97482.78
2023-05-23T14:46:32.823Z,97477.78
2023-05-23T14:48:34.287Z,97483.81
2023-05-23T14:50:36.098Z,97481.03
2023-05-23T14:52:37.442Z,97486.13
2023-05-23T14:54:41.024Z,97483.50
2023-05-23T14:56:43.343Z,97483.47
2023-05-23T14:58:45.925Z,97480.22
2023-05-23T15:00:48.202Z,97490.09
2023-05-23T15:02:49.646Z,97479.88
2023-05-23T15:04:51.086Z,97502.81
2023-05-23T15:06:52.599Z,97491.97
2023-05-23T15:08:53.973Z,97511.53
2023-05-23T15:10:55.306Z,97512.63
2023-05-23T15:12:56.711Z,97511.00
2023-05-23T15:15:03.436Z,97514.44
2023-05-23T15:17:08.145Z,97514.47
2023-05-23T15:19:09.556Z,97509.47
2023-05-23T15:21:12.328Z,97517.88
2023-05-23T15:23:13.704Z,97520.44
2023-05-23T15:25:15.028Z,97513.81
2023-05-23T15:27:20.065Z,97521.91
2023-05-23T15:29:23.908Z,97523.81
2023-05-23T15:31:25.286Z,97523.16
2023-05-23T15:33:26.689Z,97520.78
2023-05-23T15:35:28.203Z,97527.84
2023-05-23T15:37:29.548Z,97526.16
2023-05-23T15:39:30.862Z,97522.81
2023-05-23T15:41:32.230Z,97522.09
2023-05-23T15:43:35.208Z,97526.50
2023-05-23T15:45:36.536Z,97528.34
2023-05-23T15:47:38.026Z,97524.28
2023-05-23T15:49:39.407Z,97520.19
2023-05-23T15:51:40.740Z,97522.09
2023-05-23T15:53:59.152Z,97520.41
2023-05-23T15:56:02.299Z,97529.59
2023-05-23T15:58:03.656Z,97522.16
2023-05-23T16:00:05.066Z,97517.81
2023-05-23T16:02:06.680Z,97523.00
2023-05-23T16:04:08.208Z,97527.38
2023-05-23T16:06:09.559Z,97525.75
2023-05-23T16:08:10.991Z,97521.72
2023-05-23T16:10:12.439Z,97525.09
2023-05-23T16:12:13.768Z,97526.00
2023-05-23T16:14:15.168Z,97527.72
2023-05-23T16:16:16.542Z,97520.00
2023-05-23T16:18:17.977Z,97520.06
2023-05-23T16:20:19.332Z,97528.06
2023-05-23T16:22:20.662Z,97528.63
2023-05-23T16:24:23.012Z,97527.69
2023-05-23T16:26:24.337Z,97524.22
2023-05-23T16:28:25.669Z,97526.78
2023-05-23T16:30:27.934Z,97536.06
2023-05-23T16:32:29.450Z,97539.38
2023-05-23T16:34:30.935Z,97532.47
2023-05-23T16:36:32.570Z,97531.56
2023-05-23T16:38:36.932Z,97531.84
2023-05-23T16:40:38.331Z,97535.75
2023-05-23T16:42:39.691Z,97537.94
2023-05-23T16:44:41.092Z,97545.34
2023-05-23T16:46:42.585Z,97540.41
2023-05-23T16:48:44.084Z,97377.09
2023-05-23T16:50:45.443Z,97536.84
2023-05-23T16:52:46.851Z,97547.06
2023-05-23T16:54:48.294Z,97546.13
2023-05-23T16:56:49.647Z,97544.78
2023-05-23T16:58:51.097Z,97538.69
2023-05-23T17:00:55.281Z,97550.16
2023-05-23T17:02:59.823Z,97544.38
2023-05-23T17:05:02.299Z,97549.69
2023-05-23T17:07:03.820Z,97544.72
2023-05-23T17:09:05.448Z,97554.94
2023-05-23T17:11:06.788Z,97546.59
2023-05-23T17:13:08.128Z,97549.38
2023-05-23T17:15:09.474Z,97555.38
2023-05-23T17:17:10.879Z,97551.50
2023-05-23T17:19:12.603Z,97561.69
2023-05-23T17:21:13.976Z,97562.78
2023-05-23T17:23:16.050Z,97565.03
2023-05-23T17:25:17.391Z,97568.25
2023-05-23T17:27:18.789Z,97556.47
2023-05-23T17:29:20.416Z,97562.94
2023-05-23T17:31:21.820Z,97558.41
2023-05-23T17:33:23.303Z,97559.91
2023-05-23T17:35:27.387Z,97567.44
2023-05-23T17:37:28.728Z,97584.75
2023-05-23T17:39:30.150Z,97565.53
2023-05-23T17:41:31.588Z,97570.03
2023-05-23T17:43:36.098Z,97565.75
2023-05-23T17:45:37.439Z,97579.50
2023-05-23T17:47:39.332Z,97577.78
2023-05-23T17:49:41.970Z,97581.38
2023-05-23T17:51:46.050Z,97579.09
2023-05-23T17:53:51.546Z,97588.19
2023-05-23T17:55:52.948Z,97584.97
2023-05-23T17:57:54.339Z,97587.50
2023-05-23T17:59:55.697Z,97593.16
2023-05-23T18:01:57.062Z,97588.16
2023-05-23T18:03:58.528Z,97586.88
2023-05-23T18:05:59.877Z,97588.72
2023-05-23T18:08:01.207Z,97593.38
2023-05-23T18:10:03.396Z,97593.88
2023-05-23T18:12:04.997Z,97600.97
2023-05-23T18:14:07.295Z,97603.66
2023-05-23T18:16:12.445Z,97600.53
2023-05-23T18:18:13.806Z,97593.69
2023-05-23T18:20:15.378Z,97607.66
2023-05-23T18:22:16.835Z,97609.16
2023-05-23T18:24:21.162Z,97618.03
2023-05-23T18:26:22.937Z,97619.97
2023-05-23T18:28:24.468Z,97621.00
2023-05-23T18:30:26.421Z,97627.09
2023-05-23T18:32:27.832Z,97633.16
2023-05-23T18:34:29.485Z,97638.28
2023-05-23T18:36:31.677Z,97634.94
2023-05-23T18:38:33.068Z,97646.88
2023-05-23T18:40:34.510Z,97640.25
2023-05-23T18:42:35.943Z,97645.41
2023-05-23T18:44:37.406Z,97640.75
2023-05-23T18:46:38.784Z,97643.38
2023-05-23T18:48:40.805Z,97650.88
2023-05-23T18:50:42.674Z,97651.69
2023-05-23T18:52:47.144Z,97651.53
2023-05-23T18:54:51.181Z,97658.94
2023-05-23T18:56:52.851Z,97660.72
2023-05-23T18:58:54.276Z,97662.31
2023-05-23T19:00:55.715Z,97679.25
2023-05-23T19:02:57.385Z,97688.81
2023-05-23T19:05:01.834Z,97698.00
2023-05-23T19:07:03.226Z,97692.94
2023-05-23T19:09:09.503Z,97695.56
2023-05-23T19:11:12.011Z,97697.03
2023-05-23T19:13:13.866Z,97694.19
2023-05-23T19:15:15.251Z,97696.47
2023-05-23T19:17:16.641Z,97704.53
2023-05-23T19:19:18.064Z,97712.75
2023-05-23T19:21:19.494Z,97698.81
2023-05-23T19:23:23.645Z,97706.28
2023-05-23T19:25:25.002Z,97712.91
2023-05-23T19:27:26.858Z,97718.94
2023-05-23T19:29:28.245Z,97713.63
2023-05-23T19:31:29.749Z,97717.34
2023-05-23T19:33:31.101Z,97723.09
2023-05-23T19:35:32.794Z,97724.72
2023-05-23T19:37:34.194Z,97724.66
2023-05-23T19:39:35.670Z,97725.56
2023-05-23T19:41:39.783Z,97723.41
2023-05-23T19:43:41.155Z,97730.41
2023-05-23T19:45:42.574Z,97745.91
2023-05-23T19:47:43.938Z,97739.16
2023-05-23T19:49:45.762Z,97740.09
2023-05-23T19:51:47.089Z,97746.94
2023-05-23T19:53:48.403Z,97740.97
2023-05-23T19:55:50.200Z,97751.28
2023-05-23T19:57:54.624Z,97744.41
2023-05-23T19:59:56.100Z,97742.69
2023-05-23T20:01:57.712Z,97746.94
2023-05-23T20:03:59.383Z,97739.25
2023-05-23T20:06:03.743Z,97747.88
2023-05-23T20:08:05.129Z,97748.66
2023-05-23T20:10:06.745Z,97761.53
2023-05-23T20:12:08.190Z,97755.72
2023-05-23T20:14:09.663Z,97758.91
2023-05-23T20:16:11.117Z,97761.06
2023-05-23T20:18:12.987Z,97769.97
2023-05-23T20:20:14.676Z,97767.75
2023-05-23T20:22:16.122Z,97775.09
2023-05-23T20:24:17.495Z,97766.41
2023-05-23T20:26:20.943Z,97768.75
2023-05-23T20:28:22.320Z,97772.09
2023-05-23T20:30:23.705Z,97778.78
2023-05-23T20:32:25.441Z,97771.69
2023-05-23T20:34:27.376Z,97776.22
2023-05-23T20:36:28.705Z,97779.59
2023-05-23T20:38:31.338Z,97789.78
2023-05-23T20:40:33.597Z,97789.81
2023-05-23T20:42:36.394Z,97792.38
2023-05-23T20:44:37.868Z,97794.81
2023-05-23T20:46:40.331Z,97800.78
2023-05-23T20:48:41.805Z,97801.72
2023-05-23T20:50:44.022Z,97806.06
2023-05-23T20:52:45.836Z,97804.16
2023-05-23T20:56:54.275Z,97815.44
2023-05-23T20:58:55.617Z,97812.22
2023-05-23T21:00:57.741Z,97819.09
2023-05-23T21:02:59.328Z,97815.56
2023-05-23T21:05:03.802Z,97813.09
2023-05-23T21:07:05.178Z,97814.72
2023-05-23T21:09:08.773Z,97822.16
2023-05-23T21:11:10.206Z,97817.94
2023-05-23T21:13:11.634Z,97817.25
2023-05-23T21:15:12.975Z,97822.66
2023-05-23T21:17:14.510Z,97828.88
2023-05-23T21:19:19.017Z,97830.47
2023-05-23T21:21:20.474Z,97831.72
2023-05-23T21:23:21.836Z,97847.13
2023-05-23T21:25:23.238Z,97837.56
2023-05-23T21:27:24.604Z,97847.81
2023-05-23T21:29:26.003Z,97849.97
2023-05-23T21:31:40.223Z,97850.28
2023-05-23T21:35:45.248Z,97855.31
2023-05-23T21:37:46.709Z,97869.03
2023-05-23T21:39:51.921Z,97860.50
2023-05-23T21:41:53.854Z,97866.56
2023-05-23T21:43:55.334Z,97866.31
2023-05-23T21:45:56.740Z,97878.34
2023-05-23T21:47:58.213Z,97868.03
2023-05-23T21:49:59.594Z,97873.28
2023-05-23T21:52:01.033Z,97882.69
2023-05-23T21:54:02.467Z,97880.91
2023-05-23T21:56:03.789Z,97873.28
2023-05-23T21:58:05.136Z,97876.50
2023-05-23T22:00:10.377Z,97881.69
2023-05-23T22:02:11.910Z,97880.91
2023-05-23T22:04:13.305Z,97881.75
2023-05-23T22:06:14.627Z,97879.28
2023-05-23T22:08:16.335Z,97881.78
2023-05-23T22:10:17.665Z,97883.47
2023-05-23T22:12:20.051Z,97882.78
2023-05-23T22:14:21.586Z,97882.72
2023-05-23T22:16:23.008Z,97886.03
2023-05-23T22:18:27.674Z,97886.81
2023-05-23T22:20:30.216Z,97881.63
2023-05-23T22:22:31.660Z,97882.25
2023-05-23T22:24:33.024Z,97875.63
2023-05-23T22:26:34.408Z,97868.56
2023-05-23T22:28:35.796Z,97871.16
2023-05-23T22:30:37.208Z,97875.09
2023-05-23T22:32:38.578Z,97867.00
2023-05-23T22:34:39.976Z,97858.28
2023-05-23T22:36:41.413Z,97857.38
2023-05-23T22:38:42.852Z,97861.63
2023-05-23T22:40:44.334Z,97864.22
2023-05-23T22:42:45.872Z,97867.59
2023-05-23T22:44:47.776Z,97860.00
2023-05-23T22:46:49.221Z,97853.25
2023-05-23T22:48:52.588Z,97866.09
2023-05-23T22:50:57.071Z,97861.00
2023-05-23T22:52:59.269Z,97856.81
2023-05-23T22:55:00.852Z,97854.31
2023-05-23T22:57:02.356Z,97856.94
2023-05-23T22:59:03.801Z,97854.38
2023-05-23T23:01:05.157Z,97860.38
2023-05-23T23:03:07.466Z,97847.59
2023-05-23T23:05:11.212Z,97849.34
2023-05-23T23:07:12.581Z,97851.97
2023-05-23T23:09:14.341Z,97851.13
2023-05-23T23:11:15.662Z,97858.81
2023-05-23T23:13:17.027Z,97856.31
2023-05-23T23:15:18.391Z,97858.03
2023-05-23T23:17:19.777Z,97866.56
2023-05-23T23:19:21.820Z,97860.59
2023-05-23T23:21:23.225Z,97863.22
2023-05-23T23:23:24.549Z,97868.38
2023-05-23T23:25:26.227Z,97858.16
2023-05-23T23:27:30.823Z,97875.19
2023-05-23T23:29:32.441Z,97876.09
2023-05-23T23:31:33.827Z,97877.81
2023-05-23T23:33:35.257Z,97888.03
2023-05-23T23:35:36.632Z,97884.69
2023-05-23T23:37:37.963Z,97882.19
2023-05-23T23:39:39.295Z,97886.34
2023-05-23T23:41:40.702Z,97890.56
2023-05-23T23:43:42.026Z,97893.91
2023-05-23T23:45:43.448Z,97886.31
2023-05-23T23:47:46.142Z,97887.13
2023-05-23T23:49:47.530Z,97889.69
2023-05-23T23:51:48.889Z,97890.56
2023-05-23T23:53:53.218Z,97894.78
2023-05-23T23:55:54.852Z,97892.22